createdAt,value
2018-04-20T00:02:33.581Z,18.15
2018-04-20T00:05:08.945Z,18.11
2018-04-20T00:07:43.656Z,18.08
2018-04-20T00:10:18.756Z,18.05
2018-04-20T00:12:54.033Z,18.00
2018-04-20T00:15:29.953Z,17.92
2018-04-20T00:18:04.484Z,17.85
2018-04-20T00:20:38.873Z,17.81
2018-04-20T00:23:14.650Z,17.80
2018-04-20T00:25:50.125Z,17.79
2018-04-20T00:28:25.649Z,17.76
2018-04-20T00:31:00.230Z,17.74
2018-04-20T00:33:35.182Z,17.69
2018-04-20T00:36:10.198Z,17.65
2018-04-20T00:38:45.854Z,17.64
2018-04-20T00:41:21.044Z,17.61
2018-04-20T00:43:56.743Z,17.58
2018-04-20T00:46:32.085Z,17.58
2018-04-20T00:49:07.582Z,17.58
2018-04-20T00:51:42.681Z,17.56
2018-04-20T00:54:24.289Z,17.53
2018-04-20T00:56:59.790Z,17.49
2018-04-20T00:59:34.894Z,17.47
2018-04-20T01:02:09.789Z,17.42
2018-04-20T01:04:44.534Z,17.39
2018-04-20T01:07:20.002Z,17.38
2018-04-20T01:09:54.754Z,17.33
2018-04-20T01:12:30.220Z,17.31
2018-04-20T01:15:05.234Z,17.24
2018-04-20T01:17:40.245Z,17.17
2018-04-20T01:20:15.321Z,17.10
2018-04-20T01:22:50.228Z,17.04
2018-04-20T01:25:25.434Z,17.00
2018-04-20T01:28:00.778Z,16.93
2018-04-20T01:30:35.958Z,16.95
2018-04-20T01:33:11.218Z,16.90
2018-04-20T01:35:45.966Z,16.85
2018-04-20T01:38:21.238Z,16.79
2018-04-20T01:40:55.742Z,16.78
2018-04-20T01:43:30.831Z,16.77
2018-04-20T01:46:05.878Z,16.73
2018-04-20T01:48:40.390Z,16.69
2018-04-20T01:51:15.001Z,16.65
2018-04-20T01:53:50.370Z,16.72
2018-04-20T01:56:26.111Z,16.69
2018-04-20T01:59:01.227Z,16.64
2018-04-20T02:01:36.714Z,16.58
2018-04-20T02:04:11.929Z,16.51
2018-04-20T02:06:46.870Z,16.40
2018-04-20T02:09:22.343Z,16.29
2018-04-20T02:11:58.037Z,16.14
2018-04-20T02:14:33.274Z,16.08
2018-04-20T02:17:08.425Z,16.04
2018-04-20T02:19:42.859Z,16.01
2018-04-20T02:22:18.279Z,16.04
2018-04-20T02:24:53.420Z,16.12
2018-04-20T02:27:28.566Z,16.17
2018-04-20T02:30:03.389Z,16.16
2018-04-20T02:32:39.063Z,16.13
2018-04-20T02:35:14.422Z,16.06
2018-04-20T02:37:49.922Z,16.00
2018-04-20T02:40:25.318Z,15.99
2018-04-20T02:43:00.842Z,16.01
2018-04-20T02:45:35.950Z,15.97
2018-04-20T02:48:11.093Z,15.93
2018-04-20T02:50:45.662Z,15.88
2018-04-20T02:53:21.185Z,15.86
2018-04-20T02:55:56.140Z,15.85
2018-04-20T02:58:31.041Z,15.79
2018-04-20T03:01:05.982Z,15.79
2018-04-20T03:03:40.458Z,15.71
2018-04-20T03:06:16.072Z,15.64
2018-04-20T03:08:51.519Z,15.61
2018-04-20T03:11:26.642Z,15.57
2018-04-20T03:14:02.054Z,15.55
2018-04-20T03:16:37.141Z,15.50
2018-04-20T03:19:11.534Z,15.48
2018-04-20T03:21:46.454Z,15.43
2018-04-20T03:24:22.293Z,15.36
2018-04-20T03:26:57.172Z,15.30
2018-04-20T03:29:32.315Z,15.22
2018-04-20T03:32:07.566Z,15.17
2018-04-20T03:34:43.066Z,15.07
2018-04-20T03:37:18.523Z,15.02
2018-04-20T03:39:53.282Z,14.97
2018-04-20T03:42:28.534Z,14.89
2018-04-20T03:45:03.358Z,14.85
2018-04-20T03:47:38.162Z,14.82
2018-04-20T03:50:13.524Z,14.80
2018-04-20T03:52:49.133Z,14.80
2018-04-20T03:55:24.789Z,14.78
2018-04-20T03:58:00.018Z,14.76
2018-04-20T04:00:35.258Z,14.77
2018-04-20T04:03:10.126Z,14.74
2018-04-20T04:05:45.278Z,14.71
2018-04-20T04:08:20.098Z,14.67
2018-04-20T04:10:55.134Z,14.65
2018-04-20T04:13:30.581Z,14.64
2018-04-20T04:16:05.738Z,14.63
2018-04-20T04:18:52.319Z,14.61
2018-04-20T04:21:32.766Z,14.59
2018-04-20T04:37:40.861Z,14.46
2018-04-20T04:40:16.194Z,14.44
2018-04-20T04:42:51.199Z,14.36
2018-04-20T04:45:26.482Z,14.31
2018-04-20T04:48:01.845Z,14.29
2018-04-20T04:50:36.697Z,14.28
2018-04-20T04:53:11.470Z,14.28
2018-04-20T04:55:46.390Z,14.32
2018-04-20T04:58:21.539Z,14.37
2018-04-20T05:00:57.275Z,14.39
2018-04-20T05:03:32.528Z,14.44
2018-04-20T05:06:08.275Z,14.49
2018-04-20T05:08:42.690Z,14.52
2018-04-20T05:11:18.590Z,14.55
2018-04-20T05:13:53.547Z,14.63
2018-04-20T05:16:28.532Z,14.74
2018-04-20T05:19:03.530Z,14.87
2018-04-20T05:21:38.462Z,14.98
2018-04-20T05:24:13.414Z,15.13
2018-04-20T05:26:48.414Z,15.27
2018-04-20T05:29:23.258Z,15.40
2018-04-20T05:31:57.902Z,15.52
2018-04-20T05:34:33.018Z,15.63
2018-04-20T05:37:07.766Z,15.77
2018-04-20T05:39:42.774Z,15.88
2018-04-20T05:42:18.417Z,16.00
2018-04-20T05:44:53.702Z,16.12
2018-04-20T05:47:28.603Z,16.25
2018-04-20T05:50:03.266Z,16.38
2018-04-20T05:52:38.055Z,16.54
2018-04-20T05:55:13.095Z,16.69
2018-04-20T05:57:48.096Z,16.81
2018-04-20T06:00:22.799Z,16.94
2018-04-20T06:02:57.702Z,17.08
2018-04-20T06:05:32.715Z,17.22
2018-04-20T06:08:07.574Z,17.32
2018-04-20T06:10:42.362Z,17.43
2018-04-20T06:13:18.590Z,17.53
2018-04-20T06:15:53.674Z,17.62
2018-04-20T06:18:28.525Z,17.70
2018-04-20T06:21:03.422Z,17.79
2018-04-20T06:23:38.370Z,17.88
2018-04-20T06:26:13.392Z,18.01
2018-04-20T06:28:48.505Z,18.10
2018-04-20T06:31:23.492Z,18.17
2018-04-20T06:33:58.507Z,18.26
2018-04-20T06:36:33.767Z,18.35
2018-04-20T06:39:09.433Z,18.42
2018-04-20T06:41:44.482Z,18.58
2018-04-20T06:44:19.482Z,18.69
2018-04-20T06:46:54.479Z,18.82
2018-04-20T06:49:29.042Z,18.95
2018-04-20T06:52:04.110Z,19.16
2018-04-20T06:54:38.946Z,19.36
2018-04-20T06:57:13.960Z,19.60
2018-04-20T06:59:48.788Z,19.76
2018-04-20T07:02:23.824Z,19.90
2018-04-20T07:04:58.666Z,20.03
2018-04-20T07:07:33.742Z,20.21
2018-04-20T07:10:08.570Z,20.41
2018-04-20T07:12:43.478Z,20.54
2018-04-20T07:15:18.986Z,20.70
2018-04-20T07:17:54.549Z,20.87
2018-04-20T07:20:29.195Z,21.08
2018-04-20T07:23:04.266Z,21.38
2018-04-20T07:25:39.163Z,21.70
2018-04-20T07:28:13.891Z,21.99
2018-04-20T07:30:49.022Z,22.25
2018-04-20T07:33:24.138Z,22.51
2018-04-20T07:35:58.719Z,22.73
2018-04-20T07:38:33.822Z,22.84
2018-04-20T07:41:08.610Z,23.04
2018-04-20T07:43:43.618Z,23.25
2018-04-20T07:46:18.889Z,23.45
2018-04-20T07:48:53.672Z,23.70
2018-04-20T07:51:28.898Z,23.78
2018-04-20T07:54:03.919Z,23.79
2018-04-20T07:56:38.978Z,23.88
2018-04-20T07:59:13.826Z,23.87
2018-04-20T08:01:48.654Z,23.85
2018-04-20T08:04:23.770Z,23.85
2018-04-20T08:06:59.650Z,23.97
2018-04-20T08:09:34.966Z,24.16
2018-04-20T08:12:09.803Z,24.10
2018-04-20T08:14:44.642Z,24.15
2018-04-20T08:17:19.135Z,24.30
2018-04-20T08:19:54.174Z,24.46
2018-04-20T08:22:29.014Z,24.67
2018-04-20T08:25:03.786Z,24.82
2018-04-20T08:27:38.770Z,24.99
2018-04-20T08:30:13.758Z,25.13
2018-04-20T08:32:48.758Z,25.30
2018-04-20T08:35:23.776Z,25.51
2018-04-20T08:37:58.638Z,25.69
2018-04-20T08:40:36.154Z,25.81
2018-04-20T08:43:11.281Z,25.97
2018-04-20T08:45:46.259Z,26.08
2018-04-20T08:48:21.802Z,26.19
2018-04-20T08:50:56.298Z,26.21
2018-04-20T08:53:31.958Z,26.25
2018-04-20T08:56:06.769Z,26.32
2018-04-20T08:58:41.774Z,26.37
2018-04-20T09:01:16.985Z,26.54
2018-04-20T09:03:52.766Z,26.48
2018-04-20T09:06:27.953Z,26.56
2018-04-20T09:09:02.688Z,26.67
2018-04-20T09:11:37.379Z,26.79
2018-04-20T09:14:12.405Z,27.05
2018-04-20T09:16:47.770Z,27.32
2018-04-20T09:19:22.366Z,27.54
2018-04-20T09:21:57.298Z,27.67
2018-04-20T09:24:32.386Z,27.59
2018-04-20T09:27:07.159Z,27.59
2018-04-20T09:29:42.098Z,27.74
2018-04-20T09:32:17.042Z,27.95
2018-04-20T09:34:51.842Z,28.24
2018-04-20T09:37:26.786Z,28.41
2018-04-20T09:40:01.843Z,28.60
2018-04-20T09:42:37.126Z,28.72
2018-04-20T09:45:11.986Z,28.80
2018-04-20T09:47:46.534Z,28.99
2018-04-20T09:50:21.334Z,29.09
2018-04-20T09:52:56.292Z,29.26
2018-04-20T09:55:31.242Z,29.44
2018-04-20T09:58:06.057Z,29.56
2018-04-20T10:00:41.581Z,29.71
2018-04-20T10:03:16.906Z,29.85
2018-04-20T10:05:52.014Z,30.00
2018-04-20T10:08:27.010Z,30.14
2018-04-20T10:11:02.014Z,30.34
2018-04-20T10:13:37.157Z,30.52
2018-04-20T10:16:11.858Z,30.61
2018-04-20T10:18:46.897Z,30.83
2018-04-20T10:21:21.526Z,30.92
2018-04-20T10:23:56.528Z,31.09
2018-04-20T10:26:31.363Z,31.19
2018-04-20T10:29:06.259Z,31.36
2018-04-20T10:31:41.262Z,31.45
2018-04-20T10:34:16.093Z,31.46
2018-04-20T10:36:50.898Z,31.76
2018-04-20T10:39:26.162Z,31.96
2018-04-20T10:42:00.969Z,32.03
2018-04-20T10:44:35.579Z,32.04
2018-04-20T10:47:10.515Z,32.03
2018-04-20T10:49:45.539Z,32.01
2018-04-20T10:52:20.556Z,31.85
2018-04-20T10:54:55.526Z,31.70
2018-04-20T10:57:30.639Z,31.81
2018-04-20T11:00:04.722Z,31.89
2018-04-20T11:02:39.999Z,32.00
2018-04-20T11:05:14.718Z,32.09
2018-04-20T11:07:49.469Z,32.01
2018-04-20T11:10:24.486Z,32.12
2018-04-20T11:12:59.227Z,32.37
2018-04-20T11:15:34.274Z,32.42
2018-04-20T11:18:08.745Z,32.42
2018-04-20T11:20:44.027Z,32.42
2018-04-20T11:23:19.421Z,32.30
2018-04-20T11:25:54.075Z,32.11
2018-04-20T11:28:29.134Z,31.94
2018-04-20T11:31:04.169Z,31.85
2018-04-20T11:33:38.613Z,31.91
2018-04-20T11:36:13.569Z,31.96
2018-04-20T11:38:48.459Z,32.06
2018-04-20T11:41:23.726Z,32.26
2018-04-20T11:43:58.619Z,32.48
2018-04-20T11:46:33.105Z,32.72
2018-04-20T11:49:08.410Z,32.88
2018-04-20T11:51:43.117Z,32.73
2018-04-20T11:54:19.373Z,32.45
2018-04-20T11:56:54.630Z,32.20
2018-04-20T11:59:29.569Z,32.03
2018-04-20T12:02:04.397Z,31.92
2018-04-20T12:04:39.424Z,31.74
2018-04-20T12:07:14.370Z,31.71
2018-04-20T12:09:49.367Z,31.77
2018-04-20T12:12:24.506Z,31.94
2018-04-20T12:14:59.815Z,32.14
2018-04-20T12:17:34.938Z,32.27
2018-04-20T12:20:09.562Z,32.41
2018-04-20T12:22:44.168Z,32.20
2018-04-20T12:25:19.570Z,32.20
2018-04-20T12:27:54.050Z,32.22
2018-04-20T12:30:29.174Z,32.34
2018-04-20T12:33:04.138Z,32.56
2018-04-20T12:35:38.654Z,32.62
2018-04-20T12:38:13.296Z,32.53
2018-04-20T12:40:48.198Z,32.39
2018-04-20T12:43:23.087Z,32.32
2018-04-20T12:45:57.598Z,32.50
2018-04-20T12:48:32.431Z,32.55
2018-04-20T12:51:07.428Z,32.66
2018-04-20T12:53:42.230Z,32.75
2018-04-20T12:56:17.338Z,32.64
2018-04-20T12:58:52.058Z,32.62
2018-04-20T13:01:27.406Z,32.52
2018-04-20T13:04:02.224Z,32.27
2018-04-20T13:06:37.319Z,31.95
2018-04-20T13:09:12.510Z,31.62
2018-04-20T13:11:47.385Z,31.62
2018-04-20T13:14:21.922Z,31.78
2018-04-20T13:16:56.614Z,31.83
2018-04-20T13:19:31.577Z,31.93
2018-04-20T13:22:06.498Z,31.95
2018-04-20T13:24:41.106Z,31.89
2018-04-20T13:27:16.278Z,31.73
2018-04-20T13:29:51.242Z,31.83
2018-04-20T13:32:25.834Z,31.89
2018-04-20T13:35:00.841Z,31.90
2018-04-20T13:37:35.766Z,31.94
2018-04-20T13:40:10.742Z,31.94
2018-04-20T13:42:45.671Z,31.85
2018-04-20T13:45:20.490Z,31.82
2018-04-20T13:47:55.612Z,31.93
2018-04-20T13:50:30.555Z,32.13
2018-04-20T13:53:05.422Z,32.21
2018-04-20T13:55:39.989Z,32.40
2018-04-20T13:58:14.823Z,32.48
2018-04-20T14:00:49.690Z,32.54
2018-04-20T14:03:24.610Z,32.49
2018-04-20T14:05:59.580Z,32.65
2018-04-20T14:08:34.582Z,32.73
2018-04-20T14:11:09.454Z,32.55
2018-04-20T14:13:44.457Z,32.27
2018-04-20T14:16:19.802Z,32.05
2018-04-20T14:18:54.695Z,32.05
2018-04-20T14:21:29.584Z,32.15
2018-04-20T14:24:04.386Z,32.23
2018-04-20T14:26:39.334Z,32.27
2018-04-20T14:29:13.948Z,32.33
2018-04-20T14:31:49.286Z,32.27
2018-04-20T14:34:23.730Z,32.17
2018-04-20T14:36:58.826Z,32.05
2018-04-20T14:39:33.834Z,31.91
2018-04-20T14:42:09.819Z,31.86
2018-04-20T14:44:44.471Z,31.91
2018-04-20T14:47:19.810Z,31.93
2018-04-20T14:49:55.350Z,31.82
2018-04-20T14:52:29.894Z,31.65
2018-04-20T14:55:04.402Z,31.60
2018-04-20T14:57:39.665Z,31.66
2018-04-20T15:00:14.694Z,31.63
2018-04-20T15:02:49.251Z,31.66
2018-04-20T15:05:24.562Z,31.62
2018-04-20T15:07:59.062Z,31.50
2018-04-20T15:10:34.370Z,31.36
2018-04-20T15:13:09.026Z,31.20
2018-04-20T15:15:43.998Z,31.18
2018-04-20T15:18:19.709Z,31.20
2018-04-20T15:20:54.878Z,31.30
2018-04-20T15:23:29.989Z,31.31
2018-04-20T15:26:04.782Z,31.36
2018-04-20T15:28:39.926Z,31.45
2018-04-20T15:31:14.961Z,31.46
2018-04-20T15:36:46.537Z,31.11
2018-04-20T15:39:21.702Z,31.13
2018-04-20T15:41:57.150Z,31.18
2018-04-20T15:44:32.462Z,31.28
2018-04-20T15:47:07.089Z,31.30
2018-04-20T15:49:42.000Z,31.34
2018-04-20T15:52:17.124Z,31.39
2018-04-20T15:54:52.124Z,31.32
2018-04-20T15:57:27.767Z,31.17
2018-04-20T16:00:02.679Z,31.10
2018-04-20T16:02:37.650Z,31.07
2018-04-20T16:05:12.298Z,31.10
2018-04-20T16:07:47.613Z,31.14
2018-04-20T16:10:22.174Z,30.99
2018-04-20T16:12:56.944Z,30.91
2018-04-20T16:15:31.996Z,31.00
2018-04-20T16:18:06.660Z,30.95
2018-04-20T16:20:41.744Z,30.92
2018-04-20T16:23:16.285Z,30.89
2018-04-20T16:25:50.948Z,30.79
2018-04-20T16:28:25.824Z,30.58
2018-04-20T16:31:00.357Z,30.48
2018-04-20T16:33:35.834Z,30.44
2018-04-20T16:36:10.804Z,30.43
2018-04-20T16:38:45.717Z,30.35
2018-04-20T16:41:20.200Z,30.32
2018-04-20T16:43:55.133Z,30.37
2018-04-20T16:46:30.133Z,30.44
2018-04-20T16:49:05.140Z,30.44
2018-04-20T16:51:40.040Z,30.47
2018-04-20T16:54:14.880Z,30.45
2018-04-20T16:56:49.894Z,30.31
2018-04-20T16:59:25.056Z,30.16
2018-04-20T17:01:59.815Z,30.08
2018-04-20T17:04:34.907Z,29.99
2018-04-20T17:07:09.798Z,29.97
2018-04-20T17:09:45.618Z,29.99
2018-04-20T17:12:20.258Z,29.99
2018-04-20T17:14:55.104Z,30.03
2018-04-20T17:17:29.838Z,30.00
2018-04-20T17:20:04.222Z,29.86
2018-04-20T17:22:39.336Z,29.78
2018-04-20T17:25:14.330Z,29.79
2018-04-20T17:27:49.176Z,29.74
2018-04-20T17:30:24.026Z,29.71
2018-04-20T17:32:58.840Z,29.62
2018-04-20T17:35:33.991Z,29.54
2018-04-20T17:38:08.803Z,29.45
2018-04-20T17:40:43.696Z,29.36
2018-04-20T17:43:19.886Z,29.28
2018-04-20T17:45:54.404Z,29.26
2018-04-20T17:48:29.538Z,29.22
2018-04-20T17:51:04.507Z,29.16
2018-04-20T17:53:39.833Z,29.14
2018-04-20T17:56:14.428Z,29.09
2018-04-20T17:58:49.204Z,29.05
2018-04-20T18:01:24.405Z,29.03
2018-04-20T18:03:58.986Z,28.97
2018-04-20T18:06:34.054Z,28.89
2018-04-20T18:09:08.984Z,28.80
2018-04-20T18:11:43.878Z,28.72
2018-04-20T18:14:20.229Z,28.65
2018-04-20T18:16:54.824Z,28.61
2018-04-20T18:19:30.153Z,28.55
2018-04-20T18:22:04.630Z,28.50
2018-04-20T18:24:39.554Z,28.41
2018-04-20T18:27:14.350Z,28.32
2018-04-20T18:29:49.242Z,28.23
2018-04-20T18:32:24.311Z,28.16
2018-04-20T18:34:59.953Z,28.07
2018-04-20T18:37:36.020Z,28.03
2018-04-20T18:40:11.004Z,27.97
2018-04-20T18:42:46.006Z,27.89
2018-04-20T18:45:22.142Z,27.82
2018-04-20T18:47:57.007Z,27.74
2018-04-20T18:50:32.174Z,27.69
2018-04-20T18:53:07.090Z,27.61
2018-04-20T18:55:42.173Z,27.52
2018-04-20T18:58:17.032Z,27.40
2018-04-20T19:00:52.040Z,27.31
2018-04-20T19:03:27.280Z,27.23
2018-04-20T19:06:02.344Z,27.16
2018-04-20T19:08:37.273Z,27.10
2018-04-20T19:11:12.399Z,27.02
2018-04-20T19:13:47.506Z,26.94
2018-04-20T19:16:22.354Z,26.90
2018-04-20T19:18:57.461Z,26.84
2018-04-20T19:21:32.857Z,26.77
2018-04-20T19:24:07.642Z,26.67
2018-04-20T19:26:42.542Z,26.58
2018-04-20T19:29:18.033Z,26.48
2018-04-20T19:31:53.084Z,26.41
2018-04-20T19:34:28.317Z,26.37
2018-04-20T19:37:03.086Z,26.34
2018-04-20T19:39:38.106Z,26.27
2018-04-20T19:42:13.337Z,26.18
2018-04-20T19:44:48.900Z,26.16
2018-04-20T19:47:24.170Z,26.15
2018-04-20T19:49:59.077Z,26.14
2018-04-20T19:52:33.604Z,26.14
2018-04-20T19:55:09.039Z,26.17
2018-04-20T19:57:44.106Z,26.10
2018-04-20T20:00:19.858Z,26.04
2018-04-20T20:02:55.156Z,26.00
2018-04-20T20:05:30.163Z,25.95
2018-04-20T20:08:05.246Z,25.90
2018-04-20T20:10:39.736Z,25.87
2018-04-20T20:13:15.238Z,25.85
2018-04-20T20:15:50.128Z,25.77
2018-04-20T20:18:25.472Z,25.68
2018-04-20T20:21:00.208Z,25.61
2018-04-20T20:23:35.540Z,25.59
2018-04-20T20:26:10.325Z,25.56
2018-04-20T20:28:45.334Z,25.49
2018-04-20T20:31:20.604Z,25.38
2018-04-20T20:33:55.400Z,25.27
2018-04-20T20:36:30.423Z,25.16
2018-04-20T20:39:04.731Z,25.08
2018-04-20T20:41:39.543Z,25.00
2018-04-20T20:44:14.706Z,24.92
2018-04-20T20:46:49.656Z,24.86
2018-04-20T20:49:24.609Z,24.84
2018-04-20T20:51:59.389Z,24.90
2018-04-20T20:54:34.600Z,24.94
2018-04-20T20:57:09.622Z,24.93
2018-04-20T20:59:44.409Z,24.80
2018-04-20T21:02:20.557Z,24.74
2018-04-20T21:04:55.534Z,24.77
2018-04-20T21:07:30.532Z,24.76
2018-04-20T21:10:05.446Z,24.62
2018-04-20T21:12:40.578Z,24.47
2018-04-20T21:15:15.630Z,24.33
2018-04-20T21:17:50.626Z,24.20
2018-04-20T21:20:25.680Z,24.03
2018-04-20T21:23:00.620Z,23.90
2018-04-20T21:25:35.552Z,23.80
2018-04-20T21:28:10.685Z,23.77
2018-04-20T21:30:45.761Z,23.74
2018-04-20T21:33:21.072Z,23.72
2018-04-20T21:35:56.143Z,23.67
2018-04-20T21:38:31.122Z,23.60
2018-04-20T21:41:06.221Z,23.57
2018-04-20T21:43:41.233Z,23.53
2018-04-20T21:46:16.724Z,23.49
2018-04-20T21:48:51.710Z,23.48
2018-04-20T21:51:26.657Z,23.49
2018-04-20T21:54:01.382Z,23.47
2018-04-20T21:56:36.712Z,23.42
2018-04-20T21:59:11.227Z,23.44
2018-04-20T22:01:46.036Z,23.44
2018-04-20T22:04:21.130Z,23.38
2018-04-20T22:06:56.140Z,23.30
2018-04-20T22:09:31.018Z,23.24
2018-04-20T22:12:05.977Z,23.22
2018-04-20T22:14:40.874Z,23.23
2018-04-20T22:17:16.039Z,23.19
2018-04-20T22:19:51.646Z,23.11
2018-04-20T22:22:27.004Z,23.03
2018-04-20T22:25:02.027Z,23.01
2018-04-20T22:27:37.989Z,22.93
2018-04-20T22:30:13.012Z,22.91
2018-04-20T22:32:48.060Z,22.85
2018-04-20T22:35:23.188Z,22.81
2018-04-20T22:37:58.779Z,22.82
2018-04-20T22:40:33.963Z,22.84
2018-04-20T22:43:09.153Z,22.84
2018-04-20T22:45:44.161Z,22.82
2018-04-20T22:48:19.118Z,22.72
2018-04-20T22:50:54.663Z,22.67
2018-04-20T22:53:29.658Z,22.65
2018-04-20T22:56:04.384Z,22.64
2018-04-20T22:58:39.799Z,22.61
2018-04-20T23:01:14.946Z,22.58
2018-04-20T23:03:49.353Z,22.59
2018-04-20T23:06:24.100Z,22.55
2018-04-20T23:08:59.280Z,22.52
2018-04-20T23:11:33.816Z,22.46
2018-04-20T23:14:08.345Z,22.33
2018-04-20T23:16:42.810Z,22.19
2018-04-20T23:19:18.177Z,22.13
2018-04-20T23:21:53.093Z,22.11
2018-04-20T23:24:28.159Z,22.08
2018-04-20T23:27:03.852Z,22.07
2018-04-20T23:29:38.829Z,22.08
2018-04-20T23:32:13.879Z,22.05
2018-04-20T23:34:49.227Z,22.04
2018-04-20T23:37:24.657Z,22.04
2018-04-20T23:39:59.132Z,22.00
2018-04-20T23:42:34.524Z,21.93
2018-04-20T23:45:09.849Z,21.95
2018-04-20T23:47:45.035Z,21.95
2018-04-20T23:50:21.200Z,21.96
2018-04-20T23:52:55.884Z,21.85
2018-04-20T23:55:31.098Z,21.76
2018-04-20T23:58:06.093Z,21.70
